Flight Track Log - Related Links

Times and Time Zones

All times are in EDT time to prevent confusion due to time zone crossing. See the UAL1717 flight status page for this flight to view local times or setup timezone preferences in your user account.

Time Position Orientation Groundspeed Altitude Reporting Facility
EDT Latitude Longitude Course Direction KTS MPH feet Rate Location/Type
Tue 10:46:32 PM 29.9951 -95.4113 126° Southeast  Level FlightAware Approximate
Tue 10:46:49 PM 29.9500 -95.3406 278° West 183 211 900  Level Houston Center
Tue 10:51:04 PM 29.9883 -95.6800 285° West 293 337 12,000 2,599 Climbing Houston Center
Tue 10:52:03 PM 30.0142 -95.7936 282° West 329 379 14,500 2,017 Climbing Houston Center
Tue 10:53:03 PM 30.0356 -95.9097 284° West 359 413 16,000 793 Climbing Houston Center
Tue 10:54:04 PM 30.0611 -96.0258 282° West 374 430 16,100 942 Climbing Houston Center
Tue 10:55:04 PM 30.0806 -96.1300 281° West 374 430 17,900 2,000 Climbing Houston Center
Tue 10:56:04 PM 30.1014 -96.2581 281° West 380 437 20,100 2,250 Climbing Houston Center
Tue 10:57:04 PM 30.1222 -96.3836 278° West 394 453 22,400 2,350 Climbing Houston Center
Tue 10:58:04 PM 30.1400 -96.5261 282° West 405 466 24,800 2,067 Climbing Houston Center
Tue 10:59:03 PM 30.1644 -96.6594 284° West 417 480 26,500 1,550 Climbing Houston Center
Tue 11:00:04 PM 30.1928 -96.7906 283° West 417 480 27,900 1,438 Climbing Houston Center
Tue 11:01:04 PM 30.2208 -96.9289 283° West 434 499 29,400 1,700 Climbing Houston Center
Tue 11:02:04 PM 30.2489 -97.0647 285° West 444 511 31,300 1,850 Climbing Houston Center
Tue 11:03:04 PM 30.2792 -97.1986 284° West 438 504 33,100 1,350 Climbing Houston Center
Tue 11:04:04 PM 30.3069 -97.3322 282° West 433 498 34,000 900 Climbing Houston Center
Tue 11:05:04 PM 30.3289 -97.4514 284° West 433 498 34,900 950 Climbing Houston Center
Tue 11:06:04 PM 30.3567 -97.5853 283° West 433 498 35,900 555 Climbing Houston Center
Tue 11:07:03 PM 30.3839 -97.7192 282° West 433 498 36,000 50 Climbing Houston Center
Tue 11:08:03 PM 30.4092 -97.8531 284° West 433 498 36,000  Level Houston Center
Tue 11:09:03 PM 30.4400 -97.9969 283° West 433 498 36,000  Level Houston Center
Tue 11:10:03 PM 30.4672 -98.1308 283° West 428 493 36,000  Level Houston Center
Tue 11:11:03 PM 30.4942 -98.2628 283° West 428 493 36,000  Level Houston Center
Tue 11:12:04 PM 30.5208 -98.3944 281° West 422 486 36,000  Level Houston Center
Tue 11:13:03 PM 30.5436 -98.5261 284° West 422 486 36,000  Level Houston Center
Tue 11:14:04 PM 30.5722 -98.6581 282° West 422 486 36,000  Level Houston Center
Tue 11:15:04 PM 30.5967 -98.7900 282° West 417 480 36,000  Level Houston Center
Tue 11:16:03 PM 30.6208 -98.9194 282° West 417 480 36,000  Level Houston Center
Tue 11:17:04 PM 30.6436 -99.0392 284° West 417 480 36,000 -50 Level Houston Center
Tue 11:18:03 PM 30.6733 -99.1789 283° West 417 480 35,900 -50 Descending Houston Center
Tue 11:19:04 PM 30.6994 -99.3086 282° West 417 480 35,900 50 Level Houston Center
Tue 11:20:04 PM 30.7236 -99.4358 282° West 417 480 36,000  Climbing Houston Center
Tue 11:21:03 PM 30.7472 -99.5656 283° West 417 480 35,900  Descending Houston Center
Tue 11:22:03 PM 30.7728 -99.6981 283° West 417 480 36,000  Climbing Houston Center
Tue 11:23:03 PM 30.7983 -99.8281 282° West 417 480 35,900 -50 Descending Houston Center
Tue 11:24:03 PM 30.8214 -99.9603 283° West 417 480 35,900  Level Houston Center
Tue 11:25:04 PM 30.8467 -100.0928 281° West 417 480 35,900 50 Level Houston Center
Tue 11:26:03 PM 30.8694 -100.2250 283° West 417 480 36,000 50 Climbing Houston Center
Tue 11:27:03 PM 30.8944 -100.3553 280° West 417 480 36,000  Level Houston Center
Tue 11:28:03 PM 30.9150 -100.4897 283° West 417 480 36,000 -50 Level Houston Center
Tue 11:29:03 PM 30.9400 -100.6153 282° West 417 480 35,900 -50 Descending Houston Center
Tue 11:30:04 PM 30.9644 -100.7481 281° West 417 480 35,900 50 Level Houston Center
Tue 11:31:04 PM 30.9867 -100.8806 280° West 422 486 36,000 50 Climbing Houston Center
Tue 11:32:03 PM 31.0064 -101.0156 283° West 422 486 36,000 -50 Level Houston Center
Tue 11:33:03 PM 31.0328 -101.1461 282° West 417 480 35,900  Descending Houston Center
Tue 11:34:03 PM 31.0567 -101.2767 278° West 417 480 36,000  Climbing Houston Center
Tue 11:35:04 PM 31.0711 -101.3942 282° West 408 470 35,900  Descending Houston Center
Tue 11:36:03 PM 31.0950 -101.5247 281° West 408 470 36,000  Climbing Houston Center
Tue 11:37:03 PM 31.1167 -101.6550 282° West 414 476 35,900  Descending Houston Center
Tue 11:38:21 PM 31.1500 -101.8411 281° West 418 481 36,000 43 Climbing Albuquerque Center
Tue 11:39:21 PM 31.1706 -101.9708 281° West 418 481 36,000  Level Albuquerque Center
Tue 11:40:21 PM 31.1931 -102.1028 282° West 418 481 36,000 -50 Level Albuquerque Center
Tue 11:41:21 PM 31.2181 -102.2444 280° West 418 481 35,900 -50 Descending Albuquerque Center
Tue 11:42:21 PM 31.2381 -102.3767 280° West 427 491 35,900 50 Level Albuquerque Center
Tue 11:43:21 PM 31.2581 -102.5064 281° West 421 484 36,000 50 Climbing Albuquerque Center
Tue 11:44:21 PM 31.2772 -102.6242 281° West 421 484 36,000 -50 Level Albuquerque Center
Tue 11:45:21 PM 31.2992 -102.7567 281° West 421 484 35,900  Descending Albuquerque Center
Tue 11:46:21 PM 31.3208 -102.8889 280° West 421 484 36,000 50 Climbing Albuquerque Center
Tue 11:47:21 PM 31.3403 -103.0192 280° West 421 484 36,000 -50 Level Albuquerque Center
Tue 11:48:21 PM 31.3594 -103.1517 281° West 421 484 35,900 -50 Descending Albuquerque Center
Tue 11:49:21 PM 31.3806 -103.2794 280° West 421 484 35,900 50 Level Albuquerque Center
Tue 11:50:21 PM 31.4017 -103.4147 281° West 416 479 36,000 50 Climbing Albuquerque Center
Tue 11:51:21 PM 31.4225 -103.5450 282° West 416 479 36,000  Level Albuquerque Center
Tue 11:52:21 PM 31.4456 -103.6753 281° West 416 479 36,000 -50 Level Albuquerque Center
Tue 11:53:21 PM 31.4683 -103.8153 280° West 410 472 35,900 -50 Descending Albuquerque Center
Tue 11:54:21 PM 31.4869 -103.9458 280° West 410 472 35,900  Level Albuquerque Center
Tue 11:55:21 PM 31.5069 -104.0742 281° West 410 472 35,900 50 Level Albuquerque Center
Tue 11:56:21 PM 31.5272 -104.2022 279° West 410 472 36,000 50 Climbing Albuquerque Center
Tue 11:57:21 PM 31.5453 -104.3331 280° West 410 472 36,000  Level Albuquerque Center
Tue 11:58:21 PM 31.5650 -104.4639 279° West 410 472 36,000 -50 Level Albuquerque Center
Tue 11:59:21 PM 31.5828 -104.5972 280° West 410 472 35,900  Descending Albuquerque Center
Wed 12:00:21 AM 31.6025 -104.7306 280° West 410 472 36,000 50 Climbing Albuquerque Center
Wed 12:01:21 AM 31.6219 -104.8617 280° West 410 472 36,000  Level Albuquerque Center
Wed 12:02:21 AM 31.6414 -104.9925 279° West 410 472 36,000 -50 Level Albuquerque Center
Wed 12:03:21 AM 31.6583 -105.1236 280° West 410 472 35,900  Descending Albuquerque Center
Wed 12:04:21 AM 31.6772 -105.2450 279° West 410 472 36,000  Climbing Albuquerque Center
Wed 12:05:21 AM 31.6942 -105.3764 280° West 410 472 35,900  Descending Albuquerque Center
Wed 12:06:21 AM 31.7128 -105.5053 279° West 410 472 36,000 50 Climbing Albuquerque Center
Wed 12:07:21 AM 31.7314 -105.6367 278° West 410 472 36,000  Level Albuquerque Center
Wed 12:08:21 AM 31.7478 -105.7703 279° West 410 472 36,000  Level Albuquerque Center
Wed 12:09:21 AM 31.7661 -105.9019 279° West 410 472 36,000 -50 Level Albuquerque Center
Wed 12:10:21 AM 31.7844 -106.0333 279° West 410 472 35,900  Descending Albuquerque Center
Wed 12:11:21 AM 31.8025 -106.1647 278° West 410 472 36,000 50 Climbing Albuquerque Center
Wed 12:12:21 AM 31.8183 -106.2964 276° West 410 472 36,000 -50 Level Albuquerque Center
Wed 12:13:21 AM 31.8297 -106.4306 274° West 410 472 35,900  Descending Albuquerque Center
Wed 12:14:21 AM 31.8372 -106.5722 275° West 410 472 36,000 50 Climbing Albuquerque Center
Wed 12:15:21 AM 31.8464 -106.7089 275° West 410 472 36,000  Level Albuquerque Center
Wed 12:16:21 AM 31.8572 -106.8456 274° West 410 472 36,000  Level Albuquerque Center
Wed 12:17:21 AM 31.8661 -106.9800 276° West 410 472 36,000 -50 Level Albuquerque Center
Wed 12:18:21 AM 31.8769 -107.1119 273° West 410 472 35,900 -50 Descending Albuquerque Center
Wed 12:19:21 AM 31.8833 -107.2461 276° West 415 478 35,900 50 Level Albuquerque Center
Wed 12:20:21 AM 31.8961 -107.3806 272° West 415 478 36,000 50 Climbing Albuquerque Center
Wed 12:21:21 AM 31.9000 -107.4881 275° West 420 483 36,000  Level Albuquerque Center
Wed 12:22:21 AM 31.9122 -107.6519 276° West 420 483 36,000  Level Albuquerque Center
Wed 12:23:21 AM 31.9244 -107.7914 285° West 425 489 36,000  Level Albuquerque Center
Wed 12:24:21 AM 31.9531 -107.9211 286° West 425 489 36,000 -50 Level Albuquerque Center
Wed 12:25:21 AM 31.9858 -108.0533 286° West 425 489 35,900  Descending Albuquerque Center
Wed 12:26:21 AM 32.0142 -108.1736 286° West 420 483 36,000 50 Climbing Albuquerque Center
Wed 12:27:21 AM 32.0467 -108.3086 286° West 420 483 36,000  Level Albuquerque Center
Wed 12:28:21 AM 32.0789 -108.4411 285° West 420 483 36,000  Level Albuquerque Center
Wed 12:29:21 AM 32.1089 -108.5736 285° West 420 483 36,000  Level Albuquerque Center
Wed 12:30:21 AM 32.1428 -108.7214 285° West 420 483 36,000  Level Albuquerque Center
Wed 12:31:21 AM 32.1725 -108.8517 286° West 420 483 36,000  Level Albuquerque Center
Wed 12:32:21 AM 32.2042 -108.9847 285° West 420 483 36,000  Level Albuquerque Center
Wed 12:33:21 AM 32.2356 -109.1203 285° West 420 483 36,000  Level Albuquerque Center
Wed 12:34:21 AM 32.2647 -109.2508 287° West 420 483 36,000  Level Albuquerque Center
Wed 12:35:21 AM 32.2981 -109.3817 285° West 420 483 36,000  Level Albuquerque Center
Wed 12:36:21 AM 32.3292 -109.5150 286° West 420 483 36,000  Level Albuquerque Center
Wed 12:37:21 AM 32.3600 -109.6461 287° West 420 483 36,000  Level Albuquerque Center
Wed 12:38:21 AM 32.3931 -109.7747 285° West 420 483 36,000  Level Albuquerque Center
Wed 12:39:21 AM 32.4236 -109.9058 286° West 420 483 36,000  Level Albuquerque Center
Wed 12:40:21 AM 32.4561 -110.0397 286° West 420 483 36,000  Level Albuquerque Center
Wed 12:41:21 AM 32.4867 -110.1686 285° West 420 483 36,000  Level Albuquerque Center
Wed 12:42:21 AM 32.5169 -110.3000 288° West 420 483 36,000  Level Albuquerque Center
Wed 12:43:21 AM 32.5456 -110.4069 286° West 420 483 36,000  Level Albuquerque Center
Wed 12:44:21 AM 32.5794 -110.5483 284° West 420 483 36,000  Level Albuquerque Center
Wed 12:45:21 AM 32.6069 -110.6800 286° West 415 478 36,000  Level Albuquerque Center
Wed 12:46:21 AM 32.6389 -110.8094 285° West 421 484 36,000  Level Albuquerque Center
Wed 12:47:21 AM 32.6683 -110.9414 284° West 421 484 36,000  Level Albuquerque Center
Wed 12:48:21 AM 32.6975 -111.0758 286° West 421 484 36,000  Level Albuquerque Center
Wed 12:49:21 AM 32.7328 -111.2203 285° West 421 484 36,000  Level Albuquerque Center
Wed 12:50:21 AM 32.7636 -111.3550 285° West 421 484 36,000  Level Albuquerque Center
Wed 12:51:21 AM 32.7925 -111.4872 285° West 421 484 36,000  Level Albuquerque Center
Wed 12:52:21 AM 32.8214 -111.6172 285° West 421 484 36,000  Level Albuquerque Center
Wed 12:53:21 AM 32.8500 -111.7469 286° West 421 484 36,000  Level Albuquerque Center
Wed 12:54:21 AM 32.8792 -111.8672 279° West 421 484 36,000  Level Albuquerque Center
Wed 12:55:21 AM 32.8969 -112.0017 275° West 421 484 36,000  Level Albuquerque Center
Wed 12:56:21 AM 32.9081 -112.1406 276° West 416 479 36,000 -50 Level Albuquerque Center
Wed 12:57:21 AM 32.9208 -112.2897 276° West 416 479 35,900  Descending Albuquerque Center
Wed 12:58:21 AM 32.9339 -112.4289 276° West 416 479 36,000 50 Climbing Albuquerque Center
Wed 12:59:21 AM 32.9467 -112.5658 274° West 421 484 36,000 -50 Level Albuquerque Center
Wed 01:00:21 AM 32.9553 -112.7000 261° West 421 484 35,900 -50 Descending Albuquerque Center
Wed 01:01:21 AM 32.9367 -112.8347 260° West 415 478 35,900  Level Albuquerque Center
Wed 01:02:21 AM 32.9186 -112.9547 262° West 415 478 35,900  Level Albuquerque Center
Wed 01:03:21 AM 32.9019 -113.0872 260° West 415 478 35,900 50 Level Albuquerque Center
Wed 01:04:21 AM 32.8831 -113.2169 261° West 415 478 36,000 50 Climbing Albuquerque Center
Wed 01:05:21 AM 32.8661 -113.3492 260° West 409 471 36,000  Level Albuquerque Center
Wed 01:07:19 AM 32.8244 -113.6200 262° West 415 478 36,000  Level Los Angeles Center
Wed 01:08:19 AM 32.8083 -113.7514 261° West 409 471 36,000 -50 Level Los Angeles Center
Wed 01:09:19 AM 32.7900 -113.8853 262° West 409 471 35,900 -50 Descending Los Angeles Center
Wed 01:10:19 AM 32.7736 -114.0192 269° West 409 471 35,900  Level Los Angeles Center
Wed 01:11:19 AM 32.7717 -114.1500 270° West 409 471 35,900 50 Level Los Angeles Center
Wed 01:12:19 AM 32.7717 -114.2833 269° West 404 465 36,000 50 Climbing Los Angeles Center
Wed 01:13:19 AM 32.7692 -114.4169 269° West 404 465 36,000  Level Los Angeles Center
Wed 01:14:19 AM 32.7669 -114.5478 270° West 404 465 36,000  Level Los Angeles Center
Wed 01:15:19 AM 32.7664 -114.6836 268° West 404 465 36,000 -100 Level Los Angeles Center
Wed 01:16:19 AM 32.7617 -114.8172 269° West 404 465 35,800 -1,400 Descending Los Angeles Center
Wed 01:17:19 AM 32.7589 -114.9481 270° West 404 465 33,200 -2,450 Descending Los Angeles Center
Wed 01:18:19 AM 32.7581 -115.0839 268° West 404 465 30,900 -2,250 Descending Los Angeles Center
Wed 01:19:19 AM 32.7547 -115.2122 268° West 404 465 28,700 -2,100 Descending Los Angeles Center
Wed 01:20:19 AM 32.7517 -115.3408 268° West 399 459 26,700 -2,000 Descending Los Angeles Center
Wed 01:21:19 AM 32.7481 -115.4669 272° West 393 452 24,700 -1,550 Descending Los Angeles Center
Wed 01:22:19 AM 32.7508 -115.5953 271° West 393 452 23,600 -1,250 Descending Los Angeles Center
Wed 01:23:19 AM 32.7533 -115.7236 272° West 393 452 22,200 -1,600 Descending Los Angeles Center
Wed 01:24:19 AM 32.7578 -115.8494 270° West 388 447 20,400 -1,850 Descending Los Angeles Center
Wed 01:25:19 AM 32.7581 -115.9656 273° West 377 434 18,500 -2,000 Descending Los Angeles Center
Wed 01:26:19 AM 32.7625 -116.0817 271° West 360 414 16,400 -2,000 Descending Los Angeles Center
Wed 01:27:19 AM 32.7644 -116.1953 270° West 355 409 14,500 -1,850 Descending Los Angeles Center
Wed 01:28:19 AM 32.7644 -116.3014 260° West 347 399 12,700 -1,800 Descending Los Angeles Center
Wed 01:29:19 AM 32.7494 -116.4075 260° West 334 384 10,900 -1,500 Descending Los Angeles Center
Wed 01:30:19 AM 32.7347 -116.5114 260° West 329 379 9,700 -1,050 Descending Los Angeles Center
Wed 01:31:19 AM 32.7217 -116.6025 263° West 311 358 8,800 -1,050 Descending Los Angeles Center
Wed 01:32:19 AM 32.7131 -116.6914 266° West 291 335 7,600 -850 Descending Los Angeles Center
Wed 01:33:19 AM 32.7083 -116.7728 262° West 270 311 7,100 -900 Descending Los Angeles Center
Wed 01:34:19 AM 32.6997 -116.8492 249° West 249 287 5,800 -1,300 Descending Los Angeles Center
Wed 01:35:19 AM 32.6761 -116.9231 280° West 242 278 4,500 -1,250 Descending Los Angeles Center
Wed 01:36:19 AM 32.6861 -116.9922 286° West 226 260 3,300 -1,115 Descending Los Angeles Center
Wed 01:37:12 AM 32.7000 -117.0500 292° West 192 221 2,400 -958 Descending Southern California TRACON
Wed 01:38:18 AM 32.7167 -117.1000 292° West 166 191 1,400 -898 Descending Southern California TRACON
Wed 01:39:19 AM 32.7333 -117.1500 274° West 155 178 500 -595 Descending Southern California TRACON
Wed 01:40:19 AM 32.7367 -117.2150 281° West 164 189 200 11,750 Descending Los Angeles Center
Wed 01:41:19 AM 32.7464 -117.2719 282° West 164 189 24,000 11,900 Climbing Los Angeles Center
Wed 01:42:19 AM 32.7564 -117.3264 282° West 164 189 24,000  Level Los Angeles Center
Wed 01:43:19 AM 32.7603 -117.3486 282° West 164 189 24,000  Level Los Angeles Center

Login

Don't have an account? Register now (free) for customized features, flight alerts, and more!